createdAt,value
2022-08-05T00:00:51.813Z,4.15
2022-08-05T00:01:53.661Z,4.32
2022-08-05T00:02:55.639Z,4.30
2022-08-05T00:03:57.641Z,4.25
2022-08-05T00:04:59.257Z,4.28
2022-08-05T00:06:06.508Z,4.25
2022-08-05T00:07:58.955Z,4.40
2022-08-05T00:08:44.792Z,4.13
2022-08-05T00:09:49.066Z,4.80
2022-08-05T00:10:50.640Z,4.80
2022-08-05T00:11:55.728Z,4.88
2022-08-05T00:13:01.317Z,5.13
2022-08-05T00:14:12.976Z,4.78
2022-08-05T00:15:54.913Z,4.70
2022-08-05T00:16:52.073Z,4.70
2022-08-05T00:17:55.375Z,4.97
2022-08-05T00:18:57.337Z,4.35
2022-08-05T00:20:02.225Z,4.20
2022-08-05T00:21:06.914Z,4.40
2022-08-05T00:22:11.397Z,4.15
2022-08-05T00:23:13.341Z,3.92
2022-08-05T00:24:18.917Z,4.32
2022-08-05T00:25:25.993Z,4.65
2022-08-05T00:26:51.830Z,4.57
2022-08-05T00:27:54.429Z,3.90
2022-08-05T00:28:57.013Z,3.78
2022-08-05T00:29:59.195Z,3.55
2022-08-05T00:31:07.504Z,4.50
2022-08-05T00:32:14.972Z,4.38
2022-08-05T00:34:54.673Z,4.38
2022-08-05T00:34:56.127Z,3.80
2022-08-05T00:36:16.473Z,4.18
2022-08-05T00:37:24.323Z,4.43
2022-08-05T00:38:28.983Z,4.38
2022-08-05T00:39:41.399Z,4.18
2022-08-05T00:40:51.929Z,4.30
2022-08-05T00:41:55.864Z,4.05
2022-08-05T00:43:00.461Z,3.88
2022-08-05T00:44:02.461Z,4.63
2022-08-05T00:45:08.498Z,4.63
2022-08-05T00:46:10.462Z,4.50
2022-08-05T00:47:12.146Z,4.57
2022-08-05T00:48:16.247Z,4.40
2022-08-05T00:49:20.089Z,4.45
2022-08-05T00:50:21.686Z,4.10
2022-08-05T00:51:51.954Z,4.70
2022-08-05T00:52:48.961Z,4.70
2022-08-05T00:54:02.255Z,4.80
2022-08-05T00:55:05.257Z,4.65
2022-08-05T00:56:07.938Z,4.60
2022-08-05T00:57:09.792Z,4.20
2022-08-05T00:58:13.727Z,4.40
2022-08-05T00:59:15.288Z,4.55
2022-08-05T01:00:17.148Z,4.00
2022-08-05T01:01:24.958Z,4.45
2022-08-05T01:02:43.312Z,4.70
2022-08-05T01:03:45.067Z,4.90
2022-08-05T01:04:51.692Z,4.43
2022-08-05T01:05:54.344Z,4.18
2022-08-05T01:06:56.804Z,4.85
2022-08-05T01:08:40.620Z,5.03
2022-08-05T01:09:20.392Z,4.38
2022-08-05T01:10:52.502Z,4.20
2022-08-05T01:12:03.136Z,4.30
2022-08-05T01:13:27.547Z,4.50
2022-08-05T01:14:55.887Z,4.63
2022-08-05T01:16:02.430Z,4.70
2022-08-05T01:17:08.928Z,4.53
2022-08-05T01:18:15.902Z,4.20
2022-08-05T01:20:01.137Z,3.78
2022-08-05T01:21:04.350Z,3.90
2022-08-05T01:22:35.227Z,3.58
2022-08-05T01:24:02.833Z,3.75
2022-08-05T01:25:54.064Z,3.63
2022-08-05T01:27:28.183Z,3.88
2022-08-05T01:28:44.242Z,3.85
2022-08-05T01:29:49.931Z,3.80
2022-08-05T01:31:11.523Z,4.10
2022-08-05T01:32:20.689Z,4.22
2022-08-05T01:33:26.468Z,4.15
2022-08-05T01:34:35.882Z,4.20
2022-08-05T01:35:51.833Z,4.18
2022-08-05T01:37:02.280Z,4.18
2022-08-05T01:38:05.697Z,4.45
2022-08-05T01:39:07.512Z,4.55
2022-08-05T01:40:12.462Z,4.78
2022-08-05T01:41:16.808Z,5.40
2022-08-05T01:42:25.007Z,4.93
2022-08-05T01:43:29.850Z,5.10
2022-08-05T01:44:34.175Z,5.28
2022-08-05T01:45:39.105Z,5.00
2022-08-05T01:46:46.298Z,4.93
2022-08-05T01:47:49.921Z,5.28
2022-08-05T01:48:58.878Z,5.35
2022-08-05T01:50:03.197Z,5.90
2022-08-05T01:51:12.418Z,5.68
2022-08-05T01:52:17.984Z,5.00
2022-08-05T01:53:57.148Z,4.90
2022-08-05T01:54:52.775Z,5.07
2022-08-05T01:55:59.882Z,5.75
2022-08-05T01:58:11.543Z,5.30
2022-08-05T01:58:40.846Z,5.03
2022-08-05T01:59:49.665Z,5.15
2022-08-05T02:00:52.712Z,4.97
2022-08-05T02:01:56.006Z,5.30
2022-08-05T02:03:04.104Z,5.43
2022-08-05T02:04:06.749Z,5.60
2022-08-05T02:05:13.060Z,5.53
2022-08-05T02:06:37.355Z,5.60
2022-08-05T02:07:39.932Z,5.88
2022-08-05T02:08:54.921Z,5.60
2022-08-05T02:10:01.472Z,5.45
2022-08-05T02:11:08.432Z,5.43
2022-08-05T02:12:21.577Z,5.28
2022-08-05T02:13:53.413Z,5.22
2022-08-05T02:15:12.237Z,5.25
2022-08-05T02:16:29.211Z,5.63
2022-08-05T02:18:33.038Z,5.10
2022-08-05T02:19:28.093Z,5.07
2022-08-05T02:20:39.072Z,6.20
2022-08-05T02:21:49.103Z,5.65
2022-08-05T02:22:58.437Z,5.80
2022-08-05T02:24:08.959Z,5.45
2022-08-05T02:25:18.674Z,5.78
2022-08-05T02:26:35.766Z,5.68
2022-08-05T02:27:59.885Z,5.82
2022-08-05T02:29:02.502Z,5.95
2022-08-05T02:30:08.221Z,5.35
2022-08-05T02:31:15.039Z,5.60
2022-08-05T02:32:24.135Z,5.97
2022-08-05T02:33:36.257Z,5.47
2022-08-05T02:34:42.085Z,5.88
2022-08-05T02:35:56.352Z,5.78
2022-08-05T02:37:04.573Z,5.60
2022-08-05T02:38:09.452Z,6.05
2022-08-05T02:39:12.980Z,6.13
2022-08-05T02:40:17.204Z,6.15
2022-08-05T02:41:21.128Z,5.35
2022-08-05T02:42:27.543Z,5.55
2022-08-05T02:43:31.537Z,6.10
2022-08-05T02:44:38.571Z,5.85
2022-08-05T02:45:52.032Z,6.25
2022-08-05T02:47:00.509Z,5.35
2022-08-05T02:48:11.898Z,5.75
2022-08-05T02:49:18.263Z,5.57
2022-08-05T02:50:24.817Z,5.70
2022-08-05T02:51:28.198Z,5.85
2022-08-05T02:52:49.298Z,5.53
2022-08-05T02:53:54.869Z,5.30
2022-08-05T02:54:57.685Z,5.35
2022-08-05T02:56:02.289Z,5.70
2022-08-05T02:57:10.436Z,5.80
2022-08-05T02:58:31.086Z,5.60
2022-08-05T02:59:48.117Z,6.03
2022-08-05T03:00:56.319Z,5.68
2022-08-05T03:02:00.781Z,5.63
2022-08-05T03:03:07.660Z,5.65
2022-08-05T03:04:15.798Z,5.55
2022-08-05T03:05:21.822Z,5.70
2022-08-05T03:06:54.424Z,5.57
2022-08-05T03:08:08.873Z,5.60
2022-08-05T03:09:15.984Z,5.60
2022-08-05T03:10:29.128Z,5.68
2022-08-05T03:11:56.042Z,5.72
2022-08-05T03:12:54.045Z,5.50
2022-08-05T03:14:02.802Z,5.80
2022-08-05T03:15:09.168Z,5.28
2022-08-05T03:16:11.001Z,5.63
2022-08-05T03:17:17.425Z,5.78
2022-08-05T03:18:29.866Z,5.72
2022-08-05T03:19:34.650Z,6.18
2022-08-05T03:20:38.644Z,5.82
2022-08-05T03:21:50.415Z,5.03
2022-08-05T03:22:55.212Z,4.68
2022-08-05T03:23:59.905Z,4.68
2022-08-05T03:25:31.593Z,4.60
2022-08-05T03:26:30.433Z,4.93
2022-08-05T03:27:39.253Z,4.70
2022-08-05T03:28:54.808Z,4.45
2022-08-05T03:30:07.195Z,4.78
2022-08-05T03:31:11.238Z,4.50
2022-08-05T03:32:33.056Z,4.38
2022-08-05T03:33:51.111Z,4.63
2022-08-05T03:34:54.868Z,4.85
2022-08-05T03:35:57.977Z,4.47
2022-08-05T03:37:00.267Z,3.95
2022-08-05T03:38:03.696Z,4.82
2022-08-05T03:39:08.456Z,4.50
2022-08-05T03:40:31.175Z,5.20
2022-08-05T03:41:38.773Z,5.20
2022-08-05T03:42:51.766Z,5.05
2022-08-05T03:44:08.202Z,5.53
2022-08-05T03:45:21.362Z,5.63
2022-08-05T03:46:23.962Z,5.00
2022-08-05T03:47:35.361Z,5.07
2022-08-05T03:48:37.551Z,4.85
2022-08-05T03:49:52.135Z,5.07
2022-08-05T03:52:36.557Z,5.28
2022-08-05T03:55:34.284Z,4.93
2022-08-05T03:55:53.615Z,4.72
2022-08-05T03:56:11.972Z,5.18
2022-08-05T03:57:34.974Z,5.38
2022-08-05T03:58:46.829Z,5.20
2022-08-05T03:59:56.281Z,5.55
2022-08-05T04:01:02.054Z,6.22
2022-08-05T04:02:06.524Z,5.55
2022-08-05T04:03:09.459Z,6.07
2022-08-05T04:04:30.786Z,5.32
2022-08-05T04:05:36.261Z,5.70
2022-08-05T04:06:47.513Z,5.30
2022-08-05T04:07:57.220Z,5.20
2022-08-05T04:08:59.870Z,5.82
2022-08-05T04:10:03.240Z,5.70
2022-08-05T04:11:08.591Z,5.80
2022-08-05T04:12:24.682Z,6.40
2022-08-05T04:13:49.770Z,5.40
2022-08-05T04:14:50.754Z,5.95
2022-08-05T04:16:04.309Z,5.63
2022-08-05T04:17:09.233Z,5.65
2022-08-05T04:18:22.478Z,5.50
2022-08-05T04:19:29.236Z,5.18
2022-08-05T04:20:30.957Z,5.50
2022-08-05T04:22:10.006Z,5.07
2022-08-05T04:22:55.071Z,6.03
2022-08-05T04:24:06.180Z,5.72
2022-08-05T04:25:09.169Z,5.10
2022-08-05T04:26:13.788Z,4.95
2022-08-05T04:27:15.958Z,4.88
2022-08-05T04:28:30.547Z,5.50
2022-08-05T04:29:32.725Z,4.90
2022-08-05T04:30:34.536Z,5.15
2022-08-05T04:31:38.533Z,4.80
2022-08-05T04:32:41.194Z,5.35
2022-08-05T04:34:17.165Z,5.60
2022-08-05T04:35:06.100Z,5.35
2022-08-05T04:36:15.972Z,5.28
2022-08-05T04:38:00.749Z,5.20
2022-08-05T04:38:55.181Z,4.88
2022-08-05T04:39:59.137Z,5.53
2022-08-05T04:41:00.680Z,5.60
2022-08-05T04:42:05.685Z,5.05
2022-08-05T04:43:10.981Z,4.78
2022-08-05T04:44:24.495Z,5.38
2022-08-05T04:45:48.200Z,5.32
2022-08-05T04:46:50.362Z,5.35
2022-08-05T04:47:54.425Z,5.40
2022-08-05T04:48:59.186Z,5.70
2022-08-05T04:50:11.145Z,5.45
2022-08-05T04:51:13.247Z,4.97
2022-08-05T04:52:15.886Z,5.63
2022-08-05T04:53:19.092Z,5.85
2022-08-05T04:54:21.898Z,5.28
2022-08-05T04:56:11.828Z,5.50
2022-08-05T04:56:45.728Z,4.97
2022-08-05T04:57:54.114Z,5.10
2022-08-05T04:58:56.101Z,5.97
2022-08-05T04:59:58.561Z,5.60
2022-08-05T05:01:00.689Z,5.60
2022-08-05T05:02:07.254Z,5.97
2022-08-05T05:03:24.129Z,6.13
2022-08-05T05:04:26.122Z,6.10
2022-08-05T05:05:29.693Z,6.40
2022-08-05T05:06:39.538Z,5.63
2022-08-05T05:07:52.958Z,5.95
2022-08-05T05:08:58.328Z,6.05
2022-08-05T05:10:06.327Z,5.53
2022-08-05T05:11:09.101Z,6.00
2022-08-05T05:12:10.914Z,5.85
2022-08-05T05:13:15.921Z,6.20
2022-08-05T05:14:19.054Z,5.68
2022-08-05T05:15:57.488Z,6.13
2022-08-05T05:16:51.742Z,5.97
2022-08-05T05:17:57.741Z,6.03
2022-08-05T05:19:18.831Z,5.68
2022-08-05T05:20:21.277Z,5.65
2022-08-05T05:21:29.738Z,5.97
2022-08-05T05:22:35.968Z,5.55
2022-08-05T05:24:04.100Z,6.00
2022-08-05T05:25:17.060Z,5.55
2022-08-05T05:26:19.095Z,6.22
2022-08-05T05:27:20.710Z,5.45
2022-08-05T05:28:22.938Z,6.25
2022-08-05T05:29:41.135Z,5.75
2022-08-05T05:30:49.754Z,5.80
2022-08-05T05:31:51.600Z,6.78
2022-08-05T05:32:54.579Z,6.15
2022-08-05T05:34:01.759Z,5.90
2022-08-05T05:35:04.530Z,5.97
2022-08-05T05:36:07.907Z,6.60
2022-08-05T05:37:15.189Z,5.65
2022-08-05T05:38:27.315Z,7.45
2022-08-05T05:39:34.574Z,6.95
2022-08-05T05:40:37.698Z,6.88
2022-08-05T05:41:45.314Z,6.03
2022-08-05T05:42:56.363Z,6.75
2022-08-05T05:44:00.554Z,6.93
2022-08-05T05:45:03.106Z,6.75
2022-08-05T05:46:05.198Z,7.07
2022-08-05T05:47:21.612Z,6.95
2022-08-05T05:48:27.592Z,7.88
2022-08-05T05:49:29.473Z,6.55
2022-08-05T05:50:31.178Z,7.10
2022-08-05T05:51:50.690Z,6.90
2022-08-05T05:52:52.878Z,6.72
2022-08-05T05:53:58.948Z,7.00
2022-08-05T05:55:07.348Z,6.72
2022-08-05T05:56:09.623Z,7.07
2022-08-05T05:57:13.718Z,6.95
2022-08-05T05:58:20.761Z,6.72
2022-08-05T05:59:33.723Z,7.10
2022-08-05T06:00:42.115Z,6.78
2022-08-05T06:01:57.025Z,6.13
2022-08-05T06:03:02.392Z,6.07
2022-08-05T06:04:04.448Z,6.13
2022-08-05T06:05:16.678Z,5.97
2022-08-05T06:06:18.741Z,6.80
2022-08-05T06:07:24.152Z,6.22
2022-08-05T06:08:44.473Z,7.15
2022-08-05T06:10:00.924Z,6.40
2022-08-05T06:11:06.400Z,7.05
2022-08-05T06:12:09.677Z,6.90
2022-08-05T06:13:13.755Z,7.32
2022-08-05T06:14:15.394Z,6.63
2022-08-05T06:15:24.277Z,7.13
2022-08-05T06:16:29.146Z,8.50
2022-08-05T06:17:52.713Z,6.75
2022-08-05T06:18:55.349Z,7.15
2022-08-05T06:19:59.554Z,7.57
2022-08-05T06:21:01.534Z,7.13
2022-08-05T06:22:06.971Z,7.38
2022-08-05T06:23:08.886Z,7.20
2022-08-05T06:24:12.042Z,7.07
2022-08-05T06:25:59.717Z,6.60
2022-08-05T06:26:36.064Z,6.82
2022-08-05T06:28:10.473Z,6.25
2022-08-05T06:28:59.373Z,7.50
2022-08-05T06:30:19.873Z,7.10
2022-08-05T06:31:22.984Z,7.43
2022-08-05T06:32:33.864Z,6.78
2022-08-05T06:34:06.805Z,7.95
2022-08-05T06:35:06.125Z,6.60
2022-08-05T06:36:17.286Z,7.32
2022-08-05T06:37:56.894Z,6.28
2022-08-05T06:38:40.476Z,6.90
2022-08-05T06:39:48.769Z,6.50
2022-08-05T06:40:51.353Z,6.25
2022-08-05T06:41:52.992Z,6.22
2022-08-05T06:42:54.898Z,6.60
2022-08-05T06:43:58.298Z,6.50
2022-08-05T06:45:05.223Z,6.35
2022-08-05T06:46:08.100Z,6.72
2022-08-05T06:47:10.539Z,6.63
2022-08-05T06:48:53.075Z,6.85
2022-08-05T06:50:01.221Z,6.90
2022-08-05T06:51:09.364Z,6.03
2022-08-05T06:52:36.710Z,6.63
2022-08-05T06:53:33.634Z,6.00
2022-08-05T06:54:41.271Z,6.95
2022-08-05T06:55:43.003Z,6.38
2022-08-05T06:56:54.939Z,6.47
2022-08-05T06:58:30.140Z,5.82
2022-08-05T06:59:38.755Z,5.45
2022-08-05T07:00:43.949Z,5.85
2022-08-05T07:01:46.307Z,5.70
2022-08-05T07:02:54.475Z,6.18
2022-08-05T07:03:56.162Z,5.72
2022-08-05T07:04:57.741Z,6.32
2022-08-05T07:06:06.126Z,6.00
2022-08-05T07:07:16.308Z,5.60
2022-08-05T07:08:25.953Z,5.93
2022-08-05T07:09:27.618Z,6.40
2022-08-05T07:10:34.134Z,5.85
2022-08-05T07:11:36.961Z,5.20
2022-08-05T07:12:59.651Z,5.95
2022-08-05T07:14:20.394Z,5.07
2022-08-05T07:16:00.867Z,5.68
2022-08-05T07:17:56.217Z,5.07
2022-08-05T07:18:29.911Z,5.55
2022-08-05T07:20:10.958Z,5.15
2022-08-05T07:20:53.817Z,5.68
2022-08-05T07:22:00.181Z,5.32
2022-08-05T07:23:03.006Z,5.60
2022-08-05T07:24:11.326Z,5.80
2022-08-05T07:25:54.417Z,5.18
2022-08-05T07:26:34.799Z,5.93
2022-08-05T07:27:58.444Z,5.55
2022-08-05T07:28:59.753Z,5.28
2022-08-05T07:30:27.851Z,5.13
2022-08-05T07:31:41.083Z,4.95
2022-08-05T07:32:44.712Z,5.38
2022-08-05T07:33:52.566Z,5.38
2022-08-05T07:34:57.900Z,4.97
2022-08-05T07:36:05.905Z,5.47
2022-08-05T07:37:21.332Z,5.43
2022-08-05T07:38:33.271Z,5.47
2022-08-05T07:40:26.705Z,5.13
2022-08-05T07:41:01.635Z,4.75
2022-08-05T07:42:18.717Z,5.13
2022-08-05T07:43:33.356Z,5.72
2022-08-05T07:44:36.500Z,5.55
2022-08-05T07:45:56.580Z,5.10
2022-08-05T07:46:59.470Z,4.97
2022-08-05T07:48:02.197Z,5.20
2022-08-05T07:49:07.879Z,5.60
2022-08-05T07:50:10.274Z,5.60
2022-08-05T07:51:23.873Z,5.53
2022-08-05T07:52:38.740Z,5.28
2022-08-05T07:53:49.866Z,4.75
2022-08-05T07:54:52.454Z,5.13
2022-08-05T07:56:06.272Z,5.55
2022-08-05T07:57:41.361Z,5.18
2022-08-05T07:58:57.866Z,5.22
2022-08-05T07:59:59.816Z,5.15
2022-08-05T08:01:01.914Z,4.93
2022-08-05T08:02:15.885Z,4.90
2022-08-05T08:03:18.823Z,4.82
2022-08-05T08:04:38.132Z,5.30
2022-08-05T08:05:49.362Z,4.90
2022-08-05T08:06:51.521Z,4.75
2022-08-05T08:07:59.056Z,4.85
2022-08-05T08:09:01.010Z,5.15
2022-08-05T08:10:03.762Z,5.65
2022-08-05T08:11:05.540Z,4.72
2022-08-05T08:12:35.157Z,4.63
2022-08-05T08:13:42.920Z,4.72
2022-08-05T08:14:51.580Z,4.40
2022-08-05T08:16:34.425Z,4.53
2022-08-05T08:17:19.037Z,4.47
2022-08-05T08:18:23.002Z,4.63
2022-08-05T08:20:22.990Z,4.53
2022-08-05T08:21:02.938Z,4.75
2022-08-05T08:22:05.965Z,5.03
2022-08-05T08:23:59.914Z,4.95
2022-08-05T08:24:51.022Z,4.22
2022-08-05T08:26:00.870Z,4.28
2022-08-05T08:27:07.122Z,4.93
2022-08-05T08:28:18.077Z,4.22
2022-08-05T08:29:29.504Z,3.97
2022-08-05T08:30:48.059Z,4.68
2022-08-05T08:31:52.240Z,4.32
2022-08-05T08:32:53.869Z,3.88
2022-08-05T08:33:55.549Z,4.38
2022-08-05T08:34:57.913Z,4.18
2022-08-05T08:36:18.437Z,4.38
2022-08-05T08:37:21.662Z,4.28
2022-08-05T08:38:36.044Z,4.40
2022-08-05T08:39:49.286Z,4.07
2022-08-05T08:40:51.866Z,3.97
2022-08-05T08:41:59.911Z,4.00
2022-08-05T08:44:56.431Z,3.60
2022-08-05T08:45:23.383Z,3.97
2022-08-05T08:45:54.129Z,4.00
2022-08-05T08:46:56.628Z,3.53
2022-08-05T08:48:07.157Z,4.15
2022-08-05T08:50:13.042Z,3.92
2022-08-05T08:51:03.470Z,3.72
2022-08-05T08:52:14.466Z,3.60
2022-08-05T08:53:17.025Z,4.10
2022-08-05T08:54:19.028Z,4.07
2022-08-05T08:56:02.051Z,4.60
2022-08-05T08:56:47.731Z,4.30
2022-08-05T08:57:58.257Z,4.57
2022-08-05T08:59:01.233Z,4.15
2022-08-05T09:00:11.877Z,4.40
2022-08-05T09:01:19.697Z,4.38
2022-08-05T09:02:26.613Z,4.43
2022-08-05T09:03:40.536Z,4.25
2022-08-05T09:05:16.805Z,4.30
2022-08-05T09:06:11.421Z,4.45
2022-08-05T09:07:19.584Z,4.80
2022-08-05T09:08:30.945Z,4.70
2022-08-05T09:09:35.795Z,4.40
2022-08-05T09:10:46.821Z,4.25
2022-08-05T09:11:51.580Z,4.50
2022-08-05T09:12:56.877Z,4.68
2022-08-05T09:14:54.061Z,4.57
2022-08-05T09:15:28.232Z,4.43
2022-08-05T09:16:32.397Z,4.20
2022-08-05T09:17:42.358Z,4.25
2022-08-05T09:18:44.966Z,4.47
2022-08-05T09:20:01.498Z,4.35
2022-08-05T09:21:05.653Z,4.10
2022-08-05T09:22:22.751Z,4.30
2022-08-05T09:23:37.347Z,4.20
2022-08-05T09:24:58.469Z,4.63
2022-08-05T09:26:09.337Z,5.10
2022-08-05T09:28:04.170Z,4.90
2022-08-05T09:28:59.221Z,4.90
2022-08-05T09:30:06.366Z,4.55
2022-08-05T09:31:22.439Z,4.75
2022-08-05T09:32:45.857Z,4.93
2022-08-05T09:33:49.771Z,4.30
2022-08-05T09:34:55.277Z,4.10
2022-08-05T09:36:01.061Z,4.15
2022-08-05T09:37:17.405Z,4.60
2022-08-05T09:38:39.829Z,4.68
2022-08-05T09:39:52.030Z,4.63
2022-08-05T09:41:18.301Z,5.13
2022-08-05T09:42:32.546Z,5.18
2022-08-05T09:43:50.033Z,4.80
2022-08-05T09:46:05.046Z,4.78
2022-08-05T09:46:53.600Z,4.72
2022-08-05T09:48:29.233Z,4.70
2022-08-05T09:49:54.584Z,5.00
2022-08-05T09:51:01.387Z,4.63
2022-08-05T09:52:17.534Z,4.30
2022-08-05T09:53:25.668Z,5.00
2022-08-05T09:54:52.572Z,4.80
2022-08-05T09:56:04.709Z,4.55
2022-08-05T09:57:23.530Z,4.60
2022-08-05T09:58:29.177Z,4.80
2022-08-05T09:59:35.146Z,4.78
2022-08-05T10:00:39.006Z,4.85
2022-08-05T10:01:45.879Z,4.90
2022-08-05T10:02:50.403Z,5.28
2022-08-05T10:03:58.589Z,5.00
2022-08-05T10:05:14.578Z,4.72
2022-08-05T10:06:19.669Z,4.00
2022-08-05T10:07:50.538Z,4.70
2022-08-05T10:08:50.423Z,4.07
2022-08-05T10:10:14.325Z,4.30
2022-08-05T10:11:18.284Z,4.20
2022-08-05T10:12:33.314Z,3.58
2022-08-05T10:13:47.288Z,3.85
2022-08-05T10:14:49.929Z,4.57
2022-08-05T10:15:58.291Z,4.40
2022-08-05T10:17:14.081Z,4.57
2022-08-05T10:18:35.044Z,4.13
2022-08-05T10:20:02.743Z,4.10
2022-08-05T10:21:06.393Z,4.43
2022-08-05T10:22:29.553Z,4.25
2022-08-05T10:23:58.995Z,4.25
2022-08-05T10:24:56.619Z,3.95
2022-08-05T10:26:07.498Z,4.28
2022-08-05T10:27:16.708Z,4.30
2022-08-05T10:28:29.070Z,4.15
2022-08-05T10:30:41.097Z,4.57
2022-08-05T10:32:51.791Z,3.55
2022-08-05T10:32:59.322Z,4.15
2022-08-05T10:33:44.578Z,3.50
2022-08-05T10:34:46.607Z,3.78
2022-08-05T10:35:59.709Z,3.55
2022-08-05T10:37:02.470Z,3.58
2022-08-05T10:38:05.452Z,3.80
2022-08-05T10:39:24.274Z,3.30
2022-08-05T10:40:44.956Z,3.50
2022-08-05T10:42:00.757Z,3.17
2022-08-05T10:43:18.832Z,3.55
2022-08-05T10:44:25.489Z,3.70
2022-08-05T10:45:40.189Z,3.50
2022-08-05T10:47:26.540Z,3.17
2022-08-05T10:48:52.408Z,3.47
2022-08-05T10:50:20.742Z,2.90
2022-08-05T10:51:59.627Z,3.40
2022-08-05T10:53:02.404Z,3.13
2022-08-05T10:54:22.972Z,3.58
2022-08-05T10:55:27.755Z,3.15
2022-08-05T10:56:30.897Z,3.20
2022-08-05T10:57:34.209Z,2.83
2022-08-05T10:58:48.830Z,2.90
2022-08-05T11:00:27.170Z,3.33
2022-08-05T11:01:54.963Z,2.83
2022-08-05T11:03:22.801Z,3.45
2022-08-05T11:04:27.955Z,3.30
2022-08-05T11:05:34.274Z,3.15
2022-08-05T11:07:08.156Z,3.30
2022-08-05T11:08:27.671Z,3.30
2022-08-05T11:09:50.469Z,3.50
2022-08-05T11:11:52.104Z,3.60
2022-08-05T11:12:59.536Z,3.60
2022-08-05T11:14:04.062Z,3.15
2022-08-05T11:15:19.218Z,3.05
2022-08-05T11:16:47.422Z,3.15
2022-08-05T11:18:00.118Z,3.17
2022-08-05T11:20:11.499Z,3.30
2022-08-05T11:20:51.411Z,3.05
2022-08-05T11:21:55.245Z,3.28
2022-08-05T11:23:05.939Z,3.20
2022-08-05T11:24:30.261Z,3.30
2022-08-05T11:26:04.742Z,3.10
2022-08-05T11:27:51.461Z,3.40
2022-08-05T11:28:54.595Z,3.08
2022-08-05T11:29:59.943Z,3.10
2022-08-05T11:31:06.104Z,3.40
2022-08-05T11:32:29.303Z,3.30
2022-08-05T11:33:46.717Z,3.17
2022-08-05T11:34:54.180Z,3.25
2022-08-05T11:36:07.575Z,3.40
2022-08-05T11:38:26.379Z,3.10
2022-08-05T11:38:46.032Z,3.10
2022-08-05T11:40:00.488Z,2.90
2022-08-05T11:41:56.459Z,3.00
2022-08-05T11:42:41.972Z,2.80
2022-08-05T11:44:04.462Z,3.00
2022-08-05T11:45:23.366Z,2.92
2022-08-05T11:47:09.296Z,3.20
2022-08-05T11:48:11.618Z,3.30
2022-08-05T11:49:15.239Z,3.50
2022-08-05T11:50:17.749Z,2.80
2022-08-05T11:51:43.788Z,3.08
2022-08-05T11:52:41.715Z,3.05
2022-08-05T11:53:47.195Z,3.47
2022-08-05T11:54:55.029Z,2.92
2022-08-05T11:56:01.791Z,3.05
2022-08-05T11:57:08.338Z,3.10
2022-08-05T11:58:37.029Z,2.88
2022-08-05T11:59:49.923Z,3.90
2022-08-05T12:01:01.581Z,2.80
2022-08-05T12:02:23.764Z,3.28
2022-08-05T12:03:31.659Z,3.50
2022-08-05T12:04:53.460Z,3.10
2022-08-05T12:06:06.644Z,3.35
2022-08-05T12:07:17.714Z,3.28
2022-08-05T12:08:55.589Z,3.20
2022-08-05T12:10:05.973Z,3.20
2022-08-05T12:11:17.230Z,2.80
2022-08-05T12:12:23.799Z,2.78
2022-08-05T12:13:47.547Z,2.63
2022-08-05T12:14:49.317Z,2.85
2022-08-05T12:15:51.602Z,2.97
2022-08-05T12:18:02.498Z,2.60
2022-08-05T12:18:38.903Z,2.78
2022-08-05T12:20:26.825Z,2.47
2022-08-05T12:21:38.969Z,2.80
2022-08-05T12:22:41.045Z,2.65
2022-08-05T12:24:06.972Z,2.53
2022-08-05T12:25:09.275Z,2.63
2022-08-05T12:26:15.938Z,2.70
2022-08-05T12:27:26.159Z,2.50
2022-08-05T12:28:37.678Z,2.60
2022-08-05T12:29:39.391Z,3.28
2022-08-05T12:30:46.094Z,2.70
2022-08-05T12:31:55.965Z,2.72
2022-08-05T12:32:58.756Z,2.70
2022-08-05T12:34:10.060Z,2.60
2022-08-05T12:35:24.590Z,2.90
2022-08-05T12:36:39.190Z,2.83
2022-08-05T12:37:42.904Z,2.90
2022-08-05T12:38:45.265Z,2.90
2022-08-05T12:39:48.743Z,2.30
2022-08-05T12:40:54.032Z,2.45
2022-08-05T12:41:59.714Z,2.35
2022-08-05T12:43:01.331Z,2.47
2022-08-05T12:44:11.645Z,2.42
2022-08-05T12:45:15.951Z,2.25
2022-08-05T12:46:29.786Z,2.63
2022-08-05T12:47:33.421Z,2.40
2022-08-05T12:48:39.973Z,2.50
2022-08-05T12:50:03.836Z,2.25
2022-08-05T12:51:21.657Z,2.40
2022-08-05T12:52:42.400Z,2.60
2022-08-05T12:53:47.398Z,2.50
2022-08-05T12:54:57.738Z,2.50
2022-08-05T12:56:00.687Z,2.40
2022-08-05T12:57:09.439Z,2.75
2022-08-05T12:58:52.570Z,2.53
2022-08-05T13:01:58.567Z,2.47
2022-08-05T13:02:02.434Z,2.70
2022-08-05T13:02:37.238Z,2.70
2022-08-05T13:03:43.228Z,2.65
2022-08-05T13:04:52.575Z,2.42
2022-08-05T13:05:56.467Z,2.90
2022-08-05T13:07:00.648Z,2.97
2022-08-05T13:08:05.225Z,2.55
2022-08-05T13:09:13.052Z,2.50
2022-08-05T13:10:19.765Z,2.35
2022-08-05T13:12:00.007Z,2.70
2022-08-05T13:12:58.383Z,2.80
2022-08-05T13:14:04.875Z,2.83
2022-08-05T13:15:13.933Z,2.50
2022-08-05T13:16:20.272Z,2.70
2022-08-05T13:17:31.635Z,3.08
2022-08-05T13:18:39.994Z,2.60
2022-08-05T13:19:52.799Z,2.75
2022-08-05T13:20:54.640Z,2.40
2022-08-05T13:21:56.843Z,2.72
2022-08-05T13:22:58.499Z,2.40
2022-08-05T13:24:00.097Z,2.55
2022-08-05T13:25:18.610Z,2.40
2022-08-05T13:26:27.218Z,2.47
2022-08-05T13:27:38.874Z,2.47
2022-08-05T13:28:44.126Z,2.85
2022-08-05T13:30:31.619Z,2.75
2022-08-05T13:31:14.195Z,3.10
2022-08-05T13:32:21.731Z,2.80
2022-08-05T13:34:20.362Z,2.50
2022-08-05T13:34:56.316Z,2.28
2022-08-05T13:35:57.883Z,2.78
2022-08-05T13:37:03.630Z,2.13
2022-08-05T13:38:05.218Z,2.60
2022-08-05T13:39:24.757Z,2.33
2022-08-05T13:40:49.876Z,2.58
2022-08-05T13:41:51.973Z,2.30
2022-08-05T13:42:55.831Z,2.53
2022-08-05T13:43:57.512Z,2.40
2022-08-05T13:45:00.316Z,2.47
2022-08-05T13:46:02.399Z,2.42
2022-08-05T13:47:09.052Z,2.92
2022-08-05T13:48:58.518Z,2.63
2022-08-05T13:49:35.347Z,2.55
2022-08-05T13:50:38.279Z,2.63
2022-08-05T13:51:46.393Z,2.63
2022-08-05T13:52:49.850Z,2.67
2022-08-05T13:53:51.772Z,3.20
2022-08-05T13:54:59.768Z,3.10
2022-08-05T13:56:03.525Z,2.72
2022-08-05T13:57:20.486Z,2.70
2022-08-05T13:58:30.423Z,2.60
2022-08-05T13:59:33.431Z,2.70
2022-08-05T14:00:37.448Z,2.38
2022-08-05T14:01:46.479Z,2.55
2022-08-05T14:03:01.099Z,2.70
2022-08-05T14:04:22.420Z,2.80
2022-08-05T14:05:48.633Z,2.45
2022-08-05T14:06:58.817Z,2.60
2022-08-05T14:08:21.453Z,2.80
2022-08-05T14:09:29.866Z,2.58
2022-08-05T14:10:31.785Z,2.60
2022-08-05T14:11:33.434Z,2.33
2022-08-05T14:12:55.219Z,2.25
2022-08-05T14:13:57.741Z,2.45
2022-08-05T14:14:59.944Z,2.75
2022-08-05T14:16:06.853Z,2.42
2022-08-05T14:17:17.766Z,2.40
2022-08-05T14:18:23.275Z,2.40
2022-08-05T14:19:25.836Z,2.50
2022-08-05T14:20:32.344Z,2.40
2022-08-05T14:22:07.925Z,2.78
2022-08-05T14:22:55.972Z,2.72
2022-08-05T14:23:57.624Z,2.70
2022-08-05T14:25:06.402Z,2.45
2022-08-05T14:26:35.667Z,2.53
2022-08-05T14:27:47.555Z,2.35
2022-08-05T14:28:52.374Z,2.00
2022-08-05T14:29:54.665Z,2.40
2022-08-05T14:30:59.635Z,2.33
2022-08-05T14:32:15.955Z,2.55
2022-08-05T14:33:23.054Z,2.17
2022-08-05T14:34:25.167Z,2.15
2022-08-05T14:35:36.329Z,2.67
2022-08-05T14:36:39.243Z,2.58
2022-08-05T14:37:45.408Z,2.42
2022-08-05T14:38:51.584Z,2.35
2022-08-05T14:39:56.878Z,2.55
2022-08-05T14:41:01.856Z,2.58
2022-08-05T14:42:20.679Z,2.78
2022-08-05T14:43:53.880Z,2.67
2022-08-05T14:44:45.907Z,2.35
2022-08-05T14:45:47.489Z,2.58
2022-08-05T14:46:49.071Z,2.30
2022-08-05T14:48:02.679Z,2.53
2022-08-05T14:49:08.169Z,2.80
2022-08-05T14:50:17.550Z,2.20
2022-08-05T14:51:20.281Z,2.20
2022-08-05T14:52:50.313Z,2.13
2022-08-05T14:53:44.639Z,2.20
2022-08-05T14:54:52.787Z,2.35
2022-08-05T14:55:54.984Z,2.17
2022-08-05T14:56:57.536Z,2.10
2022-08-05T14:57:59.102Z,2.40
2022-08-05T14:59:01.941Z,2.58
2022-08-05T15:00:06.156Z,2.40
2022-08-05T15:01:15.607Z,2.50
2022-08-05T15:02:17.960Z,2.63
2022-08-05T15:03:19.520Z,2.70
2022-08-05T15:04:29.085Z,2.60
2022-08-05T15:06:07.452Z,2.28
2022-08-05T15:06:52.735Z,2.03
2022-08-05T15:08:11.407Z,2.60
2022-08-05T15:09:15.980Z,2.40
2022-08-05T15:10:37.593Z,2.65
2022-08-05T15:11:51.449Z,2.40
2022-08-05T15:13:00.902Z,2.50
2022-08-05T15:14:05.240Z,2.25
2022-08-05T15:15:15.405Z,2.30
2022-08-05T15:16:17.309Z,2.33
2022-08-05T15:17:46.161Z,2.55
2022-08-05T15:18:41.733Z,2.25
2022-08-05T15:19:49.044Z,2.85
2022-08-05T15:20:51.218Z,2.53
2022-08-05T15:21:54.400Z,2.85
2022-08-05T15:23:09.786Z,2.58
2022-08-05T15:24:11.916Z,2.78
2022-08-05T15:25:14.160Z,2.70
2022-08-05T15:26:17.532Z,2.67
2022-08-05T15:27:36.077Z,2.40
2022-08-05T15:28:38.145Z,2.63
2022-08-05T15:29:44.615Z,2.17
2022-08-05T15:30:46.773Z,2.10
2022-08-05T15:31:54.603Z,2.28
2022-08-05T15:32:57.451Z,2.53
2022-08-05T15:34:18.446Z,2.63
2022-08-05T15:35:21.868Z,2.65
2022-08-05T15:36:24.513Z,2.45
2022-08-05T15:38:32.904Z,2.28
2022-08-05T15:38:49.067Z,2.60
2022-08-05T15:40:59.022Z,2.42
2022-08-05T15:41:58.549Z,2.40
2022-08-05T15:43:00.593Z,3.38